Monday, April 23, 2018, 1:49 AM GMT
Back to Local

CYYY, Mont Joli, Que.

Location: , , Canada Lat: 48.6
Local Time: 1:49 AM GMT ( 1:49 GMT) Lon: -68.217
Time Zone: GMT Elev: 157 ft

Show me the last for .
Show Coded

Time T Td Feel RH Dir Speed Gust Alt SLP Vis Weather Sky Remarks
2018-04-23 01:00 41 19 36 41 220° 8 - 30.29 30.30 15 SCT220 None
2018-04-23 00:00 39 23 34 51 220° 7 - 30.27 30.28 15 BKN200 None
2018-04-22 23:00 41 21 36 44 220° 7 - 30.26 30.27 15 SCT200 None
2018-04-22 22:00 43 18 38 35 240° 8 - 30.25 30.27 30 SCT210 None
2018-04-22 21:00 43 23 39 45 270° 6 - 30.25 30.27 30 SCT230 None
2018-04-22 20:00 45 12 40 26 250° 9 - 30.26 30.27 30 SCT240 None
2018-04-22 19:00 45 16 40 30 260° 8 - 30.26 30.27 30 FEW240 None
2018-04-22 18:00 43 10 38 26 230° 8 - 30.26 30.28 30 CLR None
2018-04-22 17:00 39 12 34 32 240° 8 - 30.28 30.29 30 CLR None
2018-04-22 16:00 39 14 33 35 250° 9 - 30.29 30.30 30 CLR None
2018-04-22 15:00 36 18 30 47 290° 7 - 30.30 30.31 30 CLR None
2018-04-22 14:00 34 18 31 50 Variable 3 - 30.30 30.31 30 CLR None
2018-04-22 13:00 34 19 29 55 350° 6 - 30.29 30.31 30 CLR None
2018-04-22 12:00 34 18 30 50 330° 5 - 30.28 30.29 30 FEW240 None
2018-04-22 11:00 34 18 30 50 310° 5 - 30.27 30.28 30 FEW240 None
2018-04-22 10:00 32 21 - 63 Variable 2 - 30.25 30.26 15 SCT240 None
2018-04-22 09:00 32 21 - 63 Variable 2 - 30.23 30.24 15 FEW240 None
2018-04-22 08:00 32 23 29 68 290° 3 - 30.21 30.22 15 CLR None
2018-04-22 07:00 34 23 26 64 340° 9 - 30.19 30.21 15 SCT240 None
2018-04-22 06:00 34 25 26 69 330° 10 - 30.18 30.20 15 FEW240 None
2018-04-22 05:00 34 25 26 69 340° 10 - 30.18 30.19 15 FEW200 None
2018-04-22 04:00 37 21 31 51 320° 8 - 30.18 30.19 15 FEW200 None
2018-04-22 03:00 36 19 31 51 Variable 6 - 30.17 30.18 15 FEW080 None
2018-04-22 02:00 36 18 30 47 230° 7 - 30.16 30.18 15 SCT080 None

Support USWX by starting your Amazon purchase here.